createdAt,value
2022-08-26T00:02:21.059Z,10.00
2022-08-26T00:04:52.199Z,8.80
2022-08-26T00:07:20.512Z,9.93
2022-08-26T00:09:50.035Z,10.07
2022-08-26T00:12:19.658Z,10.30
2022-08-26T00:15:00.735Z,8.87
2022-08-26T00:17:30.046Z,9.13
2022-08-26T00:19:59.772Z,10.17
2022-08-26T00:22:29.400Z,11.87
2022-08-26T00:24:58.515Z,9.33
2022-08-26T00:27:27.890Z,11.13
2022-08-26T00:29:56.281Z,9.50
2022-08-26T00:32:26.174Z,15.03
2022-08-26T00:34:54.516Z,12.27
2022-08-26T00:37:27.138Z,8.50
2022-08-26T00:39:55.778Z,11.63
2022-08-26T00:42:30.101Z,10.07
2022-08-26T00:44:58.536Z,9.00
2022-08-26T00:47:32.383Z,9.97
2022-08-26T00:50:03.298Z,9.73
2022-08-26T00:52:34.998Z,8.90
2022-08-26T00:55:09.200Z,9.57
2022-08-26T00:57:39.252Z,12.40
2022-08-26T01:00:11.678Z,9.07
2022-08-26T01:02:40.002Z,8.60
2022-08-26T01:05:15.977Z,12.50
2022-08-26T01:07:46.106Z,12.07
2022-08-26T01:10:18.807Z,17.47
2022-08-26T01:12:52.055Z,9.47
2022-08-26T01:15:24.070Z,14.50
2022-08-26T01:17:53.589Z,12.37
2022-08-26T01:20:29.801Z,11.30
2022-08-26T01:23:01.591Z,9.00
2022-08-26T01:25:33.602Z,7.63
2022-08-26T01:28:05.755Z,9.47
2022-08-26T01:30:35.605Z,11.40
2022-08-26T01:33:06.757Z,9.30
2022-08-26T01:35:35.071Z,9.57
2022-08-26T01:38:05.590Z,13.07
2022-08-26T01:40:37.742Z,10.20
2022-08-26T01:43:09.095Z,7.67
2022-08-26T01:45:40.857Z,9.33
2022-08-26T01:48:12.242Z,13.03
2022-08-26T01:50:43.305Z,8.03
2022-08-26T01:53:14.991Z,10.43
2022-08-26T01:55:46.168Z,8.03
2022-08-26T01:58:22.016Z,9.00
2022-08-26T02:00:54.760Z,8.17
2022-08-26T02:03:24.704Z,13.10
2022-08-26T02:05:58.312Z,7.80
2022-08-26T02:08:33.291Z,10.20
2022-08-26T02:11:04.189Z,10.67
2022-08-26T02:13:35.038Z,7.83
2022-08-26T02:16:06.423Z,7.77
2022-08-26T02:18:38.916Z,9.87
2022-08-26T02:23:52.502Z,9.50
2022-08-26T02:26:26.832Z,8.27
2022-08-26T02:28:58.208Z,7.40
2022-08-26T02:31:26.739Z,9.10
2022-08-26T02:33:56.115Z,11.67
2022-08-26T02:36:28.538Z,8.40
2022-08-26T02:39:00.531Z,7.53
2022-08-26T02:41:29.729Z,13.27
2022-08-26T02:44:02.153Z,8.83
2022-08-26T02:46:31.493Z,10.83
2022-08-26T02:49:01.731Z,9.73
2022-08-26T02:51:32.058Z,7.30
2022-08-26T02:54:04.301Z,7.90
2022-08-26T02:56:33.880Z,12.00
2022-08-26T02:59:03.647Z,11.67
2022-08-26T03:01:34.288Z,8.77
2022-08-26T03:04:04.777Z,9.67
2022-08-26T03:06:34.084Z,13.90
2022-08-26T03:09:05.516Z,10.50
2022-08-26T03:11:33.869Z,7.40
2022-08-26T03:14:03.866Z,8.10
2022-08-26T03:16:34.060Z,8.90
2022-08-26T03:19:03.510Z,8.43
2022-08-26T03:21:32.477Z,10.73
2022-08-26T03:24:00.824Z,10.90
2022-08-26T03:26:31.305Z,10.90
2022-08-26T03:29:29.736Z,9.17
2022-08-26T03:32:01.692Z,11.13
2022-08-26T03:34:29.870Z,9.60
2022-08-26T03:36:58.960Z,13.73
2022-08-26T03:39:27.032Z,9.27
2022-08-26T03:41:57.622Z,10.33
2022-08-26T03:44:25.775Z,8.20
2022-08-26T03:46:55.075Z,10.23
2022-08-26T03:49:23.727Z,9.00
2022-08-26T03:51:53.145Z,9.00
2022-08-26T03:54:21.718Z,9.53
2022-08-26T03:56:51.442Z,10.43
2022-08-26T03:59:22.381Z,8.80
2022-08-26T04:01:51.248Z,14.00
2022-08-26T04:04:22.590Z,11.93
2022-08-26T04:06:57.550Z,8.00
2022-08-26T04:09:26.667Z,8.23
2022-08-26T04:11:55.020Z,9.40
2022-08-26T04:14:28.484Z,9.67
2022-08-26T04:16:56.819Z,9.50
2022-08-26T04:19:26.208Z,9.17
2022-08-26T04:21:54.947Z,8.33
2022-08-26T04:24:24.100Z,13.27
2022-08-26T04:26:52.365Z,8.47
2022-08-26T04:29:24.296Z,12.00
2022-08-26T04:31:55.893Z,13.10
2022-08-26T04:34:28.369Z,12.10
2022-08-26T04:37:01.093Z,8.53
2022-08-26T04:39:29.551Z,11.80
2022-08-26T04:41:59.643Z,12.17
2022-08-26T04:44:31.198Z,11.43
2022-08-26T04:47:02.006Z,9.53
2022-08-26T04:49:35.526Z,8.90
2022-08-26T04:52:05.090Z,8.93
2022-08-26T04:54:33.805Z,9.17
2022-08-26T04:57:02.485Z,9.37
2022-08-26T04:59:38.477Z,10.83
2022-08-26T05:02:09.772Z,9.20
2022-08-26T05:04:43.526Z,9.23
2022-08-26T05:07:13.014Z,13.03
2022-08-26T05:09:42.051Z,11.33
2022-08-26T05:12:11.499Z,13.13
2022-08-26T05:14:41.490Z,11.60
2022-08-26T05:17:14.830Z,11.23
2022-08-26T05:19:43.444Z,9.87
2022-08-26T05:22:13.095Z,14.30
2022-08-26T05:24:41.524Z,10.30
2022-08-26T05:27:13.615Z,9.93
2022-08-26T05:29:42.793Z,9.50
2022-08-26T05:32:13.923Z,10.20
2022-08-26T05:34:42.921Z,13.90
2022-08-26T05:37:11.281Z,11.27
2022-08-26T05:39:43.513Z,13.90
2022-08-26T05:42:20.767Z,11.60
2022-08-26T05:44:56.674Z,10.77
2022-08-26T05:47:28.231Z,14.37
2022-08-26T05:49:56.904Z,13.07
2022-08-26T05:52:26.297Z,13.67
2022-08-26T05:54:54.450Z,11.83
2022-08-26T05:57:23.114Z,16.13
2022-08-26T05:59:52.907Z,19.83
2022-08-26T06:02:24.194Z,17.13
2022-08-26T06:04:56.750Z,35.87
2022-08-26T06:07:46.268Z,18.93
2022-08-26T06:10:31.633Z,37.17
2022-08-26T06:13:11.860Z,21.63
2022-08-26T06:15:43.164Z,18.43
2022-08-26T06:18:14.626Z,16.47
2022-08-26T06:20:57.928Z,18.83
2022-08-26T06:23:51.150Z,22.33
2022-08-26T06:26:19.973Z,23.20
2022-08-26T06:28:48.252Z,15.90
2022-08-26T06:31:17.411Z,22.07
2022-08-26T06:33:46.222Z,19.67
2022-08-26T06:36:21.102Z,26.63
2022-08-26T06:38:50.017Z,25.60
2022-08-26T06:41:21.219Z,21.67
2022-08-26T06:43:50.999Z,21.83
2022-08-26T06:46:20.754Z,21.30
2022-08-26T06:48:50.878Z,21.17
2022-08-26T06:51:23.608Z,28.80
2022-08-26T06:53:54.865Z,23.00
2022-08-26T06:56:25.105Z,32.87
2022-08-26T06:58:55.841Z,28.40
2022-08-26T07:01:26.340Z,20.40
2022-08-26T07:03:56.985Z,18.87
2022-08-26T07:06:28.209Z,22.80
2022-08-26T07:09:03.365Z,26.67
2022-08-26T07:11:34.093Z,21.73
2022-08-26T07:14:03.003Z,27.17
2022-08-26T07:16:32.180Z,27.00
2022-08-26T07:19:03.432Z,21.97
2022-08-26T07:21:42.071Z,30.17
2022-08-26T07:24:18.780Z,24.10
2022-08-26T07:26:48.632Z,28.33
2022-08-26T07:29:20.267Z,20.57
2022-08-26T07:31:53.168Z,19.27
2022-08-26T07:34:26.204Z,22.47
2022-08-26T07:36:57.085Z,25.47
2022-08-26T07:39:28.032Z,21.37
2022-08-26T07:41:57.545Z,32.83
2022-08-26T07:44:27.258Z,25.90
2022-08-26T07:46:55.165Z,24.10
2022-08-26T07:49:23.626Z,27.20
2022-08-26T07:51:52.361Z,24.80
2022-08-26T07:54:26.658Z,22.40
2022-08-26T07:56:56.333Z,20.97
2022-08-26T07:59:25.836Z,18.13
2022-08-26T08:01:53.981Z,24.27
2022-08-26T08:04:26.735Z,15.03
2022-08-26T08:06:56.104Z,21.03
2022-08-26T08:09:26.615Z,21.13
2022-08-26T08:11:56.510Z,28.03
2022-08-26T08:14:25.103Z,23.30
2022-08-26T08:16:55.384Z,16.70
2022-08-26T08:19:36.822Z,18.80
2022-08-26T08:22:17.459Z,16.97
2022-08-26T08:24:53.027Z,18.93
2022-08-26T08:27:24.090Z,18.50
2022-08-26T08:29:54.363Z,24.03
2022-08-26T08:32:24.869Z,19.87
2022-08-26T08:34:53.766Z,35.47
2022-08-26T08:37:21.938Z,48.97
2022-08-26T08:39:51.657Z,45.53
2022-08-26T08:42:35.610Z,41.37
2022-08-26T08:45:08.380Z,22.73
2022-08-26T08:47:39.828Z,21.27
2022-08-26T08:50:17.818Z,20.50
2022-08-26T08:52:53.894Z,16.47
2022-08-26T08:55:25.822Z,21.90
2022-08-26T08:58:04.543Z,17.30
2022-08-26T09:00:40.972Z,14.90
2022-08-26T09:03:21.479Z,15.87
2022-08-26T09:05:51.575Z,14.20
2022-08-26T09:08:27.656Z,18.50
2022-08-26T09:11:00.731Z,11.30
2022-08-26T09:13:31.691Z,10.60
2022-08-26T09:16:07.641Z,14.33
2022-08-26T09:18:52.942Z,9.80
2022-08-26T09:21:23.556Z,10.90
2022-08-26T09:23:56.979Z,10.90
2022-08-26T09:26:30.973Z,13.53
2022-08-26T09:29:02.439Z,18.97
2022-08-26T09:31:33.022Z,11.33
2022-08-26T09:34:10.217Z,16.30
2022-08-26T09:36:43.813Z,17.80
2022-08-26T09:39:37.877Z,14.40
2022-08-26T09:42:11.873Z,15.00
2022-08-26T09:44:56.536Z,20.03
2022-08-26T09:47:29.816Z,18.13
2022-08-26T09:50:02.260Z,15.43
2022-08-26T09:52:30.363Z,15.10
2022-08-26T09:55:06.008Z,9.67
2022-08-26T09:57:38.287Z,10.40
2022-08-26T10:00:25.729Z,9.43
2022-08-26T10:03:07.265Z,9.23
2022-08-26T10:05:41.462Z,11.20
2022-08-26T10:08:24.736Z,8.87
2022-08-26T10:10:54.322Z,12.57
2022-08-26T10:13:29.560Z,9.70
2022-08-26T10:16:10.740Z,15.07
2022-08-26T10:18:42.291Z,20.63
2022-08-26T10:21:14.161Z,10.80
2022-08-26T10:23:49.788Z,12.50
2022-08-26T10:26:24.134Z,11.43
2022-08-26T10:28:57.840Z,14.70
2022-08-26T10:31:30.845Z,10.90
2022-08-26T10:34:10.448Z,19.53
2022-08-26T10:37:15.522Z,13.37
2022-08-26T10:39:46.632Z,10.83
2022-08-26T10:42:21.814Z,8.93
2022-08-26T10:45:05.360Z,14.77
2022-08-26T10:47:39.804Z,11.33
2022-08-26T10:50:09.584Z,17.63
2022-08-26T10:52:53.646Z,12.87
2022-08-26T10:55:27.442Z,10.40
2022-08-26T10:57:59.448Z,9.87
2022-08-26T11:00:54.310Z,9.23
2022-08-26T11:03:40.029Z,11.70
2022-08-26T11:06:23.929Z,9.83
2022-08-26T11:08:53.960Z,12.50
2022-08-26T11:11:45.419Z,12.57
2022-08-26T11:14:53.115Z,10.97
2022-08-26T11:18:00.103Z,21.40
2022-08-26T11:20:35.959Z,10.30
2022-08-26T11:23:41.630Z,12.67
2022-08-26T11:26:35.611Z,11.27
2022-08-26T11:29:12.254Z,16.50
2022-08-26T11:31:57.054Z,10.53
2022-08-26T11:34:57.092Z,13.70
2022-08-26T11:37:33.295Z,12.80
2022-08-26T11:40:04.984Z,33.53
2022-08-26T11:42:41.044Z,19.20
2022-08-26T11:45:20.147Z,17.67
2022-08-26T11:47:49.476Z,24.83
2022-08-26T11:50:26.997Z,17.50
2022-08-26T11:53:01.727Z,11.63
2022-08-26T11:55:32.250Z,20.20
2022-08-26T11:58:05.033Z,9.37
2022-08-26T12:00:54.363Z,11.57
2022-08-26T12:03:26.974Z,13.57
2022-08-26T12:05:57.366Z,13.00
2022-08-26T12:08:29.182Z,13.23
2022-08-26T12:11:06.417Z,7.73
2022-08-26T12:13:35.459Z,23.10
2022-08-26T12:16:07.780Z,20.03
2022-08-26T12:18:38.509Z,14.80
2022-08-26T12:21:16.259Z,10.03
2022-08-26T12:23:46.885Z,18.23
2022-08-26T12:26:28.145Z,11.93
2022-08-26T12:28:58.217Z,12.10
2022-08-26T12:31:31.265Z,13.47
2022-08-26T12:34:01.131Z,11.80
2022-08-26T12:36:37.230Z,13.23
2022-08-26T12:39:11.064Z,14.03
2022-08-26T12:41:50.206Z,12.07
2022-08-26T12:44:42.565Z,8.83
2022-08-26T12:47:30.977Z,7.87
2022-08-26T12:50:18.312Z,9.63
2022-08-26T12:52:59.244Z,8.20
2022-08-26T12:55:36.588Z,11.57
2022-08-26T12:58:23.035Z,9.60
2022-08-26T13:00:52.705Z,9.33
2022-08-26T13:03:43.427Z,6.43
2022-08-26T13:06:19.156Z,6.93
2022-08-26T13:08:51.458Z,14.70
2022-08-26T13:11:22.446Z,7.60
2022-08-26T13:13:53.525Z,10.37
2022-08-26T13:16:22.425Z,13.93
2022-08-26T13:18:53.137Z,8.37
2022-08-26T13:21:24.561Z,15.73
2022-08-26T13:23:56.005Z,13.00
2022-08-26T13:26:24.716Z,6.43
2022-08-26T13:29:01.367Z,14.10
2022-08-26T13:31:33.064Z,9.87
2022-08-26T13:34:03.738Z,11.90
2022-08-26T13:36:32.814Z,10.03
2022-08-26T13:39:03.450Z,13.70
2022-08-26T13:41:33.056Z,5.43
2022-08-26T13:44:02.263Z,11.77
2022-08-26T13:46:30.921Z,8.93
2022-08-26T13:48:59.347Z,10.07
2022-08-26T13:51:28.498Z,10.50
2022-08-26T13:53:58.119Z,10.37
2022-08-26T13:56:30.970Z,11.53
2022-08-26T13:59:01.243Z,16.20
2022-08-26T14:01:31.363Z,9.70
2022-08-26T14:04:00.709Z,8.17
2022-08-26T14:06:33.459Z,10.07
2022-08-26T14:09:05.246Z,10.70
2022-08-26T14:11:50.866Z,9.47
2022-08-26T14:14:22.981Z,9.87
2022-08-26T14:16:58.695Z,21.37
2022-08-26T14:19:31.178Z,11.43
2022-08-26T14:22:01.514Z,12.10
2022-08-26T14:24:31.254Z,10.60
2022-08-26T14:27:01.116Z,12.20
2022-08-26T14:29:29.388Z,9.70
2022-08-26T14:31:58.773Z,14.47
2022-08-26T14:34:29.991Z,8.30
2022-08-26T14:36:58.203Z,13.33
2022-08-26T14:39:37.367Z,9.40
2022-08-26T14:42:09.101Z,8.90
2022-08-26T14:44:38.707Z,9.13
2022-08-26T14:47:08.020Z,10.80
2022-08-26T14:49:37.720Z,11.80
2022-08-26T14:52:05.976Z,13.93
2022-08-26T14:54:34.234Z,9.40
2022-08-26T14:57:04.973Z,9.07
2022-08-26T14:59:38.830Z,12.27
2022-08-26T15:02:09.150Z,11.33
2022-08-26T15:04:43.664Z,10.33
2022-08-26T15:07:12.926Z,11.50
2022-08-26T15:09:42.115Z,14.00
2022-08-26T15:12:10.357Z,7.47
2022-08-26T15:14:46.518Z,11.33
2022-08-26T15:17:17.022Z,9.57
2022-08-26T15:19:45.478Z,10.93
2022-08-26T15:22:14.841Z,13.00
2022-08-26T15:24:44.725Z,11.43
2022-08-26T15:27:15.551Z,8.53
2022-08-26T15:29:49.749Z,14.03
2022-08-26T15:32:18.895Z,12.30
2022-08-26T15:34:50.055Z,13.67
2022-08-26T15:37:19.215Z,9.30
2022-08-26T15:39:56.871Z,14.17
2022-08-26T15:42:25.392Z,10.40
2022-08-26T15:44:57.296Z,10.03
2022-08-26T15:47:28.297Z,11.10
2022-08-26T15:49:58.267Z,16.70
2022-08-26T15:52:28.986Z,10.83
2022-08-26T15:54:58.785Z,8.80
2022-08-26T15:57:30.269Z,14.80
2022-08-26T16:00:04.496Z,12.17
2022-08-26T16:02:57.081Z,8.80
2022-08-26T16:05:39.506Z,7.43
2022-08-26T16:08:09.891Z,13.23
2022-08-26T16:10:50.561Z,9.77
2022-08-26T16:13:23.843Z,10.90
2022-08-26T16:16:19.030Z,10.47
2022-08-26T16:18:51.820Z,18.57
2022-08-26T16:21:22.014Z,7.90
2022-08-26T16:23:51.010Z,9.20
2022-08-26T16:26:27.739Z,9.03
2022-08-26T16:28:56.508Z,14.07
2022-08-26T16:31:36.155Z,14.70
2022-08-26T16:34:10.798Z,11.73
2022-08-26T16:36:48.529Z,8.70
2022-08-26T16:39:20.118Z,11.07
2022-08-26T16:41:49.161Z,19.57
2022-08-26T16:44:18.622Z,10.83
2022-08-26T16:46:50.582Z,10.57
2022-08-26T16:49:28.245Z,6.77
2022-08-26T16:51:56.948Z,8.60
2022-08-26T16:54:27.631Z,8.90
2022-08-26T16:56:58.640Z,6.90
2022-08-26T16:59:28.162Z,13.53
2022-08-26T17:01:58.469Z,16.20
2022-08-26T17:04:28.344Z,9.70
2022-08-26T17:06:56.996Z,11.87
2022-08-26T17:09:26.868Z,10.60
2022-08-26T17:11:55.952Z,10.23
2022-08-26T17:14:26.339Z,10.60
2022-08-26T17:16:57.629Z,12.20
2022-08-26T17:19:29.605Z,13.03
2022-08-26T17:22:05.656Z,12.47
2022-08-26T17:24:36.065Z,11.33
2022-08-26T17:27:05.410Z,10.30
2022-08-26T17:29:35.389Z,21.13
2022-08-26T17:32:03.801Z,7.00
2022-08-26T17:34:35.655Z,10.33
2022-08-26T17:37:04.221Z,10.37
2022-08-26T17:39:33.709Z,7.00
2022-08-26T17:42:02.005Z,12.97
2022-08-26T17:44:31.868Z,15.03
2022-08-26T17:46:59.981Z,8.33
2022-08-26T17:49:28.782Z,20.03
2022-08-26T17:52:00.013Z,10.93
2022-08-26T17:54:32.046Z,17.10
2022-08-26T17:57:00.620Z,12.10
2022-08-26T17:59:30.847Z,15.90
2022-08-26T18:02:01.956Z,5.73
2022-08-26T18:04:31.299Z,20.83
2022-08-26T18:07:10.325Z,14.27
2022-08-26T18:09:38.964Z,12.33
2022-08-26T18:12:13.387Z,15.20
2022-08-26T18:14:44.894Z,7.97
2022-08-26T18:17:15.377Z,10.50
2022-08-26T18:20:07.016Z,11.00
2022-08-26T18:22:41.388Z,13.23
2022-08-26T18:25:18.796Z,10.40
2022-08-26T18:27:53.172Z,15.90
2022-08-26T18:30:23.744Z,20.50
2022-08-26T18:32:53.788Z,11.20
2022-08-26T18:35:29.434Z,13.20
2022-08-26T18:38:01.420Z,11.47
2022-08-26T18:40:47.658Z,13.40
2022-08-26T18:43:18.133Z,15.93
2022-08-26T18:45:56.456Z,14.10
2022-08-26T18:48:28.646Z,12.90
2022-08-26T18:51:05.860Z,9.33
2022-08-26T18:53:38.353Z,14.47
2022-08-26T18:56:07.673Z,18.20
2022-08-26T18:58:36.607Z,13.10
2022-08-26T19:01:09.390Z,25.57
2022-08-26T19:03:40.766Z,14.53
2022-08-26T19:06:09.977Z,14.33
2022-08-26T19:08:46.315Z,13.30
2022-08-26T19:11:31.228Z,16.30
2022-08-26T19:16:50.347Z,9.73
2022-08-26T19:19:28.179Z,15.50
2022-08-26T19:21:59.763Z,20.77
2022-08-26T19:24:46.031Z,11.80
2022-08-26T19:27:19.395Z,15.43
2022-08-26T19:29:53.661Z,12.13
2022-08-26T19:32:27.162Z,19.63
2022-08-26T19:34:59.626Z,15.67
2022-08-26T19:37:29.959Z,22.17
2022-08-26T19:40:13.231Z,14.90
2022-08-26T19:42:45.202Z,17.87
2022-08-26T19:45:24.812Z,14.70
2022-08-26T19:48:06.782Z,16.10
2022-08-26T19:50:41.050Z,13.37
2022-08-26T19:53:12.008Z,11.93
2022-08-26T19:56:04.253Z,14.90
2022-08-26T19:58:35.711Z,18.60
2022-08-26T20:01:18.308Z,14.20
2022-08-26T20:03:51.016Z,18.17
2022-08-26T20:06:20.167Z,16.40
2022-08-26T20:08:52.111Z,11.60
2022-08-26T20:11:28.758Z,14.73
2022-08-26T20:13:57.657Z,14.53
2022-08-26T20:16:26.198Z,15.13
2022-08-26T20:19:12.764Z,14.10
2022-08-26T20:21:43.694Z,15.83
2022-08-26T20:24:14.891Z,15.20
2022-08-26T20:26:47.116Z,14.90
2022-08-26T20:29:18.930Z,13.73
2022-08-26T20:31:52.626Z,11.43
2022-08-26T20:34:22.057Z,16.90
2022-08-26T20:36:59.696Z,18.87
2022-08-26T20:39:32.130Z,17.60
2022-08-26T20:42:03.354Z,17.17
2022-08-26T20:44:35.145Z,14.63
2022-08-26T20:47:04.874Z,17.40
2022-08-26T20:49:33.277Z,12.30
2022-08-26T20:52:04.875Z,15.33
2022-08-26T20:54:33.185Z,11.47
2022-08-26T20:57:03.971Z,12.73
2022-08-26T20:59:32.227Z,12.47
2022-08-26T21:02:01.888Z,13.57
2022-08-26T21:04:31.432Z,15.80
2022-08-26T21:06:59.680Z,13.30
2022-08-26T21:09:31.762Z,10.23
2022-08-26T21:12:03.573Z,11.90
2022-08-26T21:14:33.888Z,13.27
2022-08-26T21:17:06.107Z,12.93
2022-08-26T21:19:34.426Z,13.37
2022-08-26T21:22:04.179Z,13.83
2022-08-26T21:24:33.739Z,11.07
2022-08-26T21:27:02.243Z,13.50
2022-08-26T21:29:31.642Z,13.60
2022-08-26T21:32:03.677Z,11.23
2022-08-26T21:34:33.520Z,11.40
2022-08-26T21:37:02.165Z,10.63
2022-08-26T21:39:39.240Z,17.73
2022-08-26T21:42:08.245Z,12.90
2022-08-26T21:44:39.059Z,9.10
2022-08-26T21:47:10.992Z,15.47
2022-08-26T21:49:44.202Z,14.70
2022-08-26T21:52:15.326Z,10.83
2022-08-26T21:54:49.657Z,9.30
2022-08-26T21:57:18.933Z,10.50
2022-08-26T21:59:47.630Z,8.17
2022-08-26T22:02:18.271Z,9.97
2022-08-26T22:04:48.929Z,17.10
2022-08-26T22:07:20.426Z,10.17
2022-08-26T22:10:04.632Z,8.97
2022-08-26T22:12:42.079Z,7.17
2022-08-26T22:15:14.441Z,8.80
2022-08-26T22:17:46.028Z,7.30
2022-08-26T22:20:16.449Z,6.70
2022-08-26T22:22:45.841Z,9.23
2022-08-26T22:25:15.454Z,11.60
2022-08-26T22:27:44.634Z,6.80
2022-08-26T22:30:15.892Z,9.97
2022-08-26T22:32:45.846Z,6.90
2022-08-26T22:35:28.991Z,11.50
2022-08-26T22:37:58.606Z,11.60
2022-08-26T22:40:32.978Z,8.00
2022-08-26T22:43:03.525Z,8.47
2022-08-26T22:45:33.640Z,5.73
2022-08-26T22:48:04.764Z,7.50
2022-08-26T22:50:34.090Z,6.37
2022-08-26T22:53:02.794Z,5.77
2022-08-26T22:55:34.058Z,8.60
2022-08-26T22:58:02.361Z,8.07
2022-08-26T23:00:31.989Z,10.30
2022-08-26T23:03:04.303Z,7.27
2022-08-26T23:05:34.172Z,8.67
2022-08-26T23:08:03.066Z,5.50
2022-08-26T23:10:33.869Z,8.37
2022-08-26T23:13:03.774Z,6.17
2022-08-26T23:15:36.169Z,6.60
2022-08-26T23:18:08.128Z,7.87
2022-08-26T23:20:37.648Z,6.17
2022-08-26T23:23:07.764Z,7.27
2022-08-26T23:25:38.374Z,5.73
2022-08-26T23:28:12.532Z,7.70
2022-08-26T23:30:41.550Z,8.77
2022-08-26T23:33:11.006Z,9.60
2022-08-26T23:35:38.459Z,11.47
2022-08-26T23:38:10.187Z,9.57
2022-08-26T23:40:47.794Z,7.83
2022-08-26T23:43:17.770Z,6.90
2022-08-26T23:45:46.523Z,9.80
2022-08-26T23:48:14.685Z,8.17
2022-08-26T23:51:07.212Z,8.70
2022-08-26T23:53:35.780Z,10.33
2022-08-26T23:56:05.537Z,8.43
2022-08-26T23:58:34.563Z,10.53
